createdAt,value
2019-03-26T00:01:37.929Z,47.80
2019-03-26T00:04:06.600Z,47.90
2019-03-26T00:06:35.216Z,48.00
2019-03-26T00:09:06.792Z,48.30
2019-03-26T00:11:35.460Z,48.20
2019-03-26T00:14:04.328Z,48.20
2019-03-26T00:16:33.052Z,48.20
2019-03-26T00:19:01.721Z,48.10
2019-03-26T00:21:30.366Z,48.20
2019-03-26T00:23:59.039Z,48.40
2019-03-26T00:26:27.773Z,48.50
2019-03-26T00:28:56.528Z,48.80
2019-03-26T00:31:25.138Z,48.80
2019-03-26T00:33:53.811Z,48.80
2019-03-26T00:36:22.430Z,48.80
2019-03-26T00:38:51.175Z,48.90
2019-03-26T00:41:19.906Z,49.00
2019-03-26T00:43:48.664Z,48.90
2019-03-26T00:46:17.378Z,49.30
2019-03-26T00:48:46.042Z,49.20
2019-03-26T00:51:14.704Z,49.30
2019-03-26T00:53:43.372Z,49.20
2019-03-26T00:56:11.991Z,48.90
2019-03-26T00:58:40.643Z,48.90
2019-03-26T01:01:09.841Z,49.10
2019-03-26T01:03:38.518Z,49.70
2019-03-26T01:06:07.137Z,49.20
2019-03-26T01:08:35.897Z,49.40
2019-03-26T01:11:04.977Z,49.30
2019-03-26T01:13:33.703Z,49.50
2019-03-26T01:16:02.324Z,49.80
2019-03-26T01:18:30.988Z,49.80
2019-03-26T01:20:59.593Z,49.70
2019-03-26T01:23:28.278Z,50.00
2019-03-26T01:25:57.380Z,50.00
2019-03-26T01:28:26.064Z,49.90
2019-03-26T01:30:54.671Z,50.00
2019-03-26T01:33:23.336Z,49.90
2019-03-26T01:35:51.953Z,50.00
2019-03-26T01:38:20.627Z,50.50
2019-03-26T01:40:50.429Z,50.30
2019-03-26T01:43:19.105Z,51.50
2019-03-26T01:45:47.781Z,51.50
2019-03-26T01:48:16.812Z,51.70
2019-03-26T01:50:45.477Z,51.70
2019-03-26T01:53:14.088Z,51.90
2019-03-26T01:55:42.912Z,52.00
2019-03-26T01:58:11.528Z,52.10
2019-03-26T02:00:40.209Z,52.10
2019-03-26T02:03:08.812Z,52.10
2019-03-26T02:05:37.468Z,52.20
2019-03-26T02:08:06.185Z,52.20
2019-03-26T02:10:34.958Z,52.20
2019-03-26T02:13:03.665Z,52.30
2019-03-26T02:15:33.209Z,52.30
2019-03-26T02:18:02.306Z,52.20
2019-03-26T02:20:31.348Z,52.10
2019-03-26T02:23:00.104Z,52.20
2019-03-26T02:25:28.772Z,52.70
2019-03-26T02:27:57.481Z,52.10
2019-03-26T02:30:26.143Z,52.70
2019-03-26T02:32:54.864Z,52.10
2019-03-26T02:35:23.639Z,52.00
2019-03-26T02:37:52.379Z,52.00
2019-03-26T02:40:21.101Z,52.10
2019-03-26T02:42:49.823Z,52.30
2019-03-26T02:45:18.495Z,52.20
2019-03-26T02:47:47.194Z,52.10
2019-03-26T02:50:15.969Z,52.20
2019-03-26T02:52:44.581Z,52.20
2019-03-26T02:55:13.342Z,52.00
2019-03-26T02:57:42.516Z,52.30
2019-03-26T03:00:11.388Z,52.50
2019-03-26T03:02:40.001Z,52.30
2019-03-26T03:05:08.893Z,52.30
2019-03-26T03:07:38.419Z,52.70
2019-03-26T03:10:07.808Z,52.60
2019-03-26T03:12:36.495Z,52.60
2019-03-26T03:15:05.656Z,52.70
2019-03-26T03:17:34.378Z,52.70
2019-03-26T03:20:03.478Z,53.40
2019-03-26T03:22:32.096Z,52.90
2019-03-26T03:25:00.874Z,53.10
2019-03-26T03:27:29.487Z,52.90
2019-03-26T03:29:58.140Z,53.20
2019-03-26T03:32:26.791Z,53.20
2019-03-26T03:34:55.587Z,53.50
2019-03-26T03:37:24.191Z,53.60
2019-03-26T03:39:52.809Z,53.40
2019-03-26T03:42:21.580Z,53.70
2019-03-26T03:44:50.197Z,53.70
2019-03-26T03:47:20.061Z,53.80
2019-03-26T03:49:49.389Z,53.80
2019-03-26T03:52:20.159Z,53.60
2019-03-26T03:54:48.787Z,53.70
2019-03-26T03:57:19.824Z,53.50
2019-03-26T03:59:49.270Z,53.50
2019-03-26T04:02:17.695Z,53.30
2019-03-26T04:04:46.123Z,53.30
2019-03-26T04:07:14.586Z,53.20
2019-03-26T04:09:43.366Z,53.70
2019-03-26T04:12:11.827Z,54.00
2019-03-26T04:14:40.295Z,53.80
2019-03-26T04:17:08.735Z,53.70
2019-03-26T04:19:37.168Z,53.50
2019-03-26T04:22:05.634Z,53.60
2019-03-26T04:24:34.057Z,54.00
2019-03-26T04:27:02.515Z,54.00
2019-03-26T04:29:30.982Z,53.90
2019-03-26T04:31:59.439Z,54.10
2019-03-26T04:34:27.847Z,53.80
2019-03-26T04:36:56.303Z,54.00
2019-03-26T04:39:24.711Z,53.60
2019-03-26T04:41:53.170Z,53.50
2019-03-26T04:44:21.587Z,53.70
2019-03-26T04:46:50.036Z,53.50
2019-03-26T04:49:18.498Z,53.60
2019-03-26T04:51:46.967Z,53.50
2019-03-26T04:54:15.390Z,53.60
2019-03-26T04:56:43.851Z,53.50
2019-03-26T04:59:12.254Z,53.50
2019-03-26T05:01:40.733Z,53.50
2019-03-26T05:04:09.153Z,53.50
2019-03-26T05:06:38.502Z,53.80
2019-03-26T05:09:07.091Z,53.60
2019-03-26T05:11:35.540Z,53.60
2019-03-26T05:14:04.106Z,53.70
2019-03-26T05:16:32.554Z,53.90
2019-03-26T05:19:00.956Z,53.90
2019-03-26T05:21:29.942Z,53.80
2019-03-26T05:23:58.398Z,53.80
2019-03-26T05:26:27.220Z,53.60
2019-03-26T05:28:55.838Z,53.80
2019-03-26T05:31:24.462Z,54.00
2019-03-26T05:33:53.522Z,53.90
2019-03-26T05:36:22.457Z,53.90
2019-03-26T05:38:51.980Z,54.10
2019-03-26T05:41:20.927Z,54.10
2019-03-26T05:43:49.767Z,54.10
2019-03-26T05:46:18.178Z,54.10
2019-03-26T05:48:46.626Z,54.10
2019-03-26T05:51:15.176Z,54.30
2019-03-26T05:53:43.618Z,54.10
2019-03-26T05:56:12.017Z,54.10
2019-03-26T05:58:40.793Z,54.00
2019-03-26T06:01:09.187Z,53.80
2019-03-26T06:03:37.631Z,53.80
2019-03-26T06:06:06.035Z,53.90
2019-03-26T06:08:34.471Z,53.90
2019-03-26T06:11:02.875Z,53.60
2019-03-26T06:13:31.318Z,53.70
2019-03-26T06:16:00.281Z,53.90
2019-03-26T06:18:29.183Z,53.70
2019-03-26T06:20:57.579Z,53.70
2019-03-26T06:23:26.018Z,54.10
2019-03-26T06:25:55.165Z,54.10
2019-03-26T06:28:24.031Z,54.10
2019-03-26T06:30:52.919Z,54.00
2019-03-26T06:33:22.450Z,53.90
2019-03-26T06:35:51.531Z,53.80
2019-03-26T06:38:20.257Z,53.80
2019-03-26T06:40:49.206Z,53.40
2019-03-26T06:43:18.267Z,52.20
2019-03-26T06:45:47.453Z,52.60
2019-03-26T06:48:15.898Z,52.30
2019-03-26T06:50:44.877Z,51.60
2019-03-26T06:53:13.590Z,51.90
2019-03-26T06:55:41.997Z,51.50
2019-03-26T06:58:10.443Z,51.10
2019-03-26T07:00:38.954Z,50.50
2019-03-26T07:03:07.490Z,50.10
2019-03-26T07:05:36.415Z,49.50
2019-03-26T07:08:06.246Z,49.90
2019-03-26T07:10:34.699Z,50.20
2019-03-26T07:13:03.887Z,49.90
2019-03-26T07:15:33.181Z,49.90
2019-03-26T07:18:02.480Z,50.00
2019-03-26T07:20:31.346Z,49.80
2019-03-26T07:22:59.758Z,50.00
2019-03-26T07:25:28.356Z,49.70
2019-03-26T07:27:57.838Z,50.20
2019-03-26T07:30:37.890Z,49.80
2019-03-26T07:33:07.233Z,49.50
2019-03-26T07:35:35.667Z,49.50
2019-03-26T07:38:04.835Z,49.50
2019-03-26T07:40:33.862Z,49.80
2019-03-26T07:43:02.281Z,49.40
2019-03-26T07:45:30.855Z,49.30
2019-03-26T07:47:59.251Z,49.10
2019-03-26T07:50:27.730Z,48.90
2019-03-26T07:52:56.103Z,49.00
2019-03-26T07:55:24.928Z,49.10
2019-03-26T07:57:53.378Z,48.40
2019-03-26T08:00:33.847Z,48.50
2019-03-26T08:03:02.268Z,49.00
2019-03-26T08:05:30.799Z,48.00
2019-03-26T08:07:59.209Z,47.50
2019-03-26T08:10:27.754Z,48.00
2019-03-26T08:12:56.217Z,47.90
2019-03-26T08:15:24.680Z,47.80
2019-03-26T08:17:53.503Z,47.20
2019-03-26T08:20:21.919Z,46.50
2019-03-26T08:22:50.325Z,46.20
2019-03-26T08:25:19.729Z,46.40
2019-03-26T08:27:48.162Z,47.00
2019-03-26T08:30:16.741Z,46.10
2019-03-26T08:32:45.169Z,45.50
2019-03-26T08:35:13.691Z,46.90
2019-03-26T08:37:42.258Z,45.10
2019-03-26T08:40:10.884Z,44.30
2019-03-26T08:42:39.320Z,44.70
2019-03-26T08:45:08.487Z,43.90
2019-03-26T08:47:37.651Z,44.40
2019-03-26T08:50:07.539Z,43.10
2019-03-26T08:52:36.623Z,43.00
2019-03-26T08:55:06.392Z,43.00
2019-03-26T08:57:34.830Z,42.60
2019-03-26T09:00:04.275Z,42.70
2019-03-26T09:02:32.718Z,42.50
2019-03-26T09:05:01.179Z,41.80
2019-03-26T09:07:29.726Z,40.70
2019-03-26T09:09:58.172Z,40.90
2019-03-26T09:12:26.692Z,42.50
2019-03-26T09:14:56.297Z,40.80
2019-03-26T09:17:24.724Z,39.80
2019-03-26T09:19:53.163Z,39.80
2019-03-26T09:22:21.710Z,40.00
2019-03-26T09:24:50.132Z,39.60
2019-03-26T09:27:18.556Z,40.80
2019-03-26T09:29:47.095Z,40.10
2019-03-26T09:32:15.544Z,39.70
2019-03-26T09:34:43.963Z,38.70
2019-03-26T09:37:12.515Z,40.00
2019-03-26T09:39:40.935Z,40.50
2019-03-26T09:42:09.346Z,40.20
2019-03-26T09:44:38.766Z,39.00
2019-03-26T09:47:16.036Z,39.50
2019-03-26T09:49:37.403Z,40.00
2019-03-26T09:52:05.895Z,41.20
2019-03-26T09:54:34.311Z,41.50
2019-03-26T09:57:02.763Z,39.20
2019-03-26T09:59:31.351Z,39.60
2019-03-26T10:01:59.770Z,41.00
2019-03-26T10:04:28.190Z,40.00
2019-03-26T10:06:56.680Z,39.50
2019-03-26T10:09:25.101Z,39.20
2019-03-26T10:11:53.522Z,39.40
2019-03-26T10:14:22.352Z,39.30
2019-03-26T10:16:50.816Z,38.50
2019-03-26T10:19:19.242Z,38.40
2019-03-26T10:21:47.790Z,38.00
2019-03-26T10:24:16.192Z,37.90
2019-03-26T10:26:44.615Z,39.00
2019-03-26T10:29:24.166Z,38.20
2019-03-26T10:31:43.974Z,37.50
2019-03-26T10:34:12.398Z,36.50
2019-03-26T10:36:41.733Z,36.30
2019-03-26T10:39:10.295Z,36.40
2019-03-26T10:41:38.711Z,35.70
2019-03-26T10:44:07.373Z,36.80
2019-03-26T10:46:35.838Z,37.60
2019-03-26T10:49:04.250Z,37.20
2019-03-26T10:51:32.811Z,37.70
2019-03-26T10:54:01.278Z,37.60
2019-03-26T10:56:32.493Z,37.40
2019-03-26T10:58:59.973Z,36.90
2019-03-26T11:01:28.407Z,37.30
2019-03-26T11:03:56.823Z,37.00
2019-03-26T11:06:25.359Z,35.90
2019-03-26T11:08:54.029Z,36.60
2019-03-26T11:11:22.431Z,37.40
2019-03-26T11:13:50.912Z,37.80
2019-03-26T11:16:19.376Z,37.20
2019-03-26T11:18:48.202Z,37.20
2019-03-26T11:21:16.703Z,37.20
2019-03-26T11:23:46.215Z,37.00
2019-03-26T11:26:14.834Z,36.20
2019-03-26T11:28:43.324Z,36.00
2019-03-26T11:31:11.760Z,36.50
2019-03-26T11:33:40.225Z,36.80
2019-03-26T11:36:08.909Z,35.90
2019-03-26T11:38:37.328Z,36.70
2019-03-26T11:41:05.779Z,35.70
2019-03-26T11:43:34.258Z,37.50
2019-03-26T11:46:02.780Z,36.30
2019-03-26T11:48:31.247Z,36.60
2019-03-26T11:50:59.712Z,36.80
2019-03-26T11:53:28.158Z,37.20
2019-03-26T11:55:56.590Z,36.10
2019-03-26T11:58:30.496Z,36.40
2019-03-26T12:00:55.288Z,34.60
2019-03-26T12:03:24.192Z,34.00
2019-03-26T12:05:52.895Z,33.50
2019-03-26T12:08:21.444Z,34.00
2019-03-26T12:10:49.858Z,34.40
2019-03-26T12:13:18.419Z,33.80
2019-03-26T12:15:46.881Z,33.70
2019-03-26T12:18:15.319Z,34.70
2019-03-26T12:20:43.791Z,34.60
2019-03-26T12:23:12.216Z,35.20
2019-03-26T12:25:40.646Z,35.50
2019-03-26T12:28:09.203Z,35.00
2019-03-26T12:30:38.464Z,35.00
2019-03-26T12:33:07.778Z,34.50
2019-03-26T12:35:36.481Z,34.00
2019-03-26T12:38:16.405Z,34.40
2019-03-26T12:40:45.049Z,34.70
2019-03-26T12:43:13.644Z,33.70
2019-03-26T12:45:42.306Z,33.70
2019-03-26T12:48:10.850Z,34.10
2019-03-26T12:50:39.282Z,34.30
2019-03-26T12:53:07.806Z,32.90
2019-03-26T12:55:36.298Z,33.80
2019-03-26T12:58:04.818Z,34.20
2019-03-26T13:00:33.466Z,32.70
2019-03-26T13:03:01.969Z,33.20
2019-03-26T13:05:30.391Z,33.10
2019-03-26T13:07:58.825Z,33.40
2019-03-26T13:10:27.294Z,33.80
2019-03-26T13:13:05.278Z,34.60
2019-03-26T13:15:33.966Z,34.90
2019-03-26T13:18:02.486Z,35.30
2019-03-26T13:20:31.010Z,35.20
2019-03-26T13:22:59.579Z,34.80
2019-03-26T13:25:28.025Z,34.10
2019-03-26T13:27:56.908Z,34.40
2019-03-26T13:30:25.402Z,35.00
2019-03-26T13:32:54.323Z,36.10
2019-03-26T13:35:22.859Z,35.70
2019-03-26T13:37:51.384Z,35.30
2019-03-26T13:40:27.178Z,34.50
2019-03-26T13:42:50.039Z,34.20
2019-03-26T13:45:18.598Z,35.50
2019-03-26T13:47:47.023Z,35.60
2019-03-26T13:50:15.563Z,35.10
2019-03-26T13:52:44.131Z,35.50
2019-03-26T13:55:12.651Z,34.50
2019-03-26T13:57:41.074Z,34.80
2019-03-26T14:00:10.925Z,35.30
2019-03-26T14:02:39.352Z,35.10
2019-03-26T14:05:21.588Z,35.20
2019-03-26T14:07:50.008Z,36.40
2019-03-26T14:10:18.632Z,36.40
2019-03-26T14:12:47.968Z,36.40
2019-03-26T14:15:16.769Z,37.30
2019-03-26T14:17:45.335Z,35.80
2019-03-26T14:20:15.375Z,35.70
2019-03-26T14:22:43.844Z,35.80
2019-03-26T14:25:12.990Z,36.00
2019-03-26T14:27:41.468Z,37.70
2019-03-26T14:30:12.407Z,36.70
2019-03-26T14:32:40.883Z,34.80
2019-03-26T14:35:09.442Z,35.70
2019-03-26T14:37:50.583Z,35.90
2019-03-26T14:40:08.311Z,36.40
2019-03-26T14:42:36.866Z,36.30
2019-03-26T14:45:06.504Z,36.90
2019-03-26T14:47:34.919Z,37.10
2019-03-26T14:50:03.723Z,37.40
2019-03-26T14:52:32.166Z,37.40
2019-03-26T14:55:00.600Z,36.60
2019-03-26T14:57:29.142Z,36.30
2019-03-26T14:59:57.561Z,36.50
2019-03-26T15:02:26.009Z,36.60
2019-03-26T15:04:54.543Z,36.30
2019-03-26T15:07:22.958Z,36.50
2019-03-26T15:09:51.851Z,36.60
2019-03-26T15:12:20.386Z,36.80
2019-03-26T15:14:48.803Z,36.80
2019-03-26T15:17:17.568Z,36.30
2019-03-26T15:19:46.158Z,36.30
2019-03-26T15:22:14.580Z,36.10
2019-03-26T15:24:43.447Z,36.40
2019-03-26T15:27:12.467Z,36.60
2019-03-26T15:29:40.928Z,36.80
2019-03-26T15:32:09.345Z,36.80
2019-03-26T15:34:37.836Z,37.10
2019-03-26T15:37:06.754Z,37.30
2019-03-26T15:39:35.579Z,37.20
2019-03-26T15:42:04.231Z,36.30
2019-03-26T15:44:32.659Z,36.80
2019-03-26T15:47:01.082Z,36.30
2019-03-26T15:49:29.623Z,36.90
2019-03-26T15:51:58.047Z,37.30
2019-03-26T15:54:26.487Z,37.10
2019-03-26T15:56:55.035Z,37.20
2019-03-26T15:59:23.461Z,37.50
2019-03-26T16:01:51.887Z,36.70
2019-03-26T16:04:26.095Z,36.60
2019-03-26T16:06:54.872Z,37.20
2019-03-26T16:09:23.899Z,37.50
2019-03-26T16:11:52.440Z,37.90
2019-03-26T16:14:20.851Z,37.40
2019-03-26T16:16:49.353Z,37.30
2019-03-26T16:19:31.873Z,37.40
2019-03-26T16:21:48.548Z,36.50
2019-03-26T16:24:17.459Z,35.30
2019-03-26T16:26:46.019Z,34.10
2019-03-26T16:29:14.481Z,34.20
2019-03-26T16:31:42.914Z,34.20
2019-03-26T16:34:11.466Z,34.40
2019-03-26T16:36:39.896Z,34.00
2019-03-26T16:39:09.019Z,34.40
2019-03-26T16:41:48.362Z,33.90
2019-03-26T16:44:07.835Z,34.20
2019-03-26T16:46:36.563Z,34.10
2019-03-26T16:49:05.337Z,34.50
2019-03-26T16:51:33.755Z,34.40
2019-03-26T16:54:02.191Z,34.00
2019-03-26T16:56:30.679Z,34.40
2019-03-26T16:58:59.094Z,34.20
2019-03-26T17:01:27.507Z,34.50
2019-03-26T17:03:55.985Z,34.60
2019-03-26T17:06:24.434Z,34.90
2019-03-26T17:08:52.857Z,34.50
2019-03-26T17:11:21.450Z,34.30
2019-03-26T17:13:49.872Z,34.70
2019-03-26T17:16:18.431Z,34.50
2019-03-26T17:18:46.973Z,34.10
2019-03-26T17:21:18.250Z,34.40
2019-03-26T17:23:45.622Z,34.10
2019-03-26T17:26:15.515Z,34.40
2019-03-26T17:28:44.082Z,34.20
2019-03-26T17:31:12.519Z,34.40
2019-03-26T17:33:41.014Z,34.50
2019-03-26T17:36:09.771Z,35.20
2019-03-26T17:38:38.196Z,35.00
2019-03-26T17:41:06.670Z,35.10
2019-03-26T17:43:35.121Z,35.70
2019-03-26T17:46:03.539Z,35.50
2019-03-26T17:48:32.022Z,36.20
2019-03-26T17:51:00.462Z,36.10
2019-03-26T17:53:28.901Z,36.10
2019-03-26T17:55:57.374Z,36.20
2019-03-26T17:58:25.804Z,36.40
2019-03-26T18:00:54.641Z,36.40
2019-03-26T18:03:26.767Z,36.50
2019-03-26T18:05:53.538Z,37.00
2019-03-26T18:08:21.971Z,37.00
2019-03-26T18:10:50.601Z,36.90
2019-03-26T18:13:19.063Z,38.00
2019-03-26T18:15:47.975Z,37.40
2019-03-26T18:18:16.459Z,37.60
2019-03-26T18:20:44.866Z,37.50
2019-03-26T18:23:13.876Z,37.70
2019-03-26T18:25:43.386Z,37.70
2019-03-26T18:28:11.902Z,37.90
2019-03-26T18:30:40.793Z,38.10
2019-03-26T18:33:09.660Z,38.10
2019-03-26T18:35:38.802Z,38.20
2019-03-26T18:38:08.376Z,38.30
2019-03-26T18:40:37.651Z,38.50
2019-03-26T18:43:07.014Z,38.80
2019-03-26T18:45:36.142Z,38.80
2019-03-26T18:48:04.938Z,38.90
2019-03-26T18:50:34.295Z,38.80
2019-03-26T18:53:03.427Z,39.10
2019-03-26T18:55:31.905Z,39.50
2019-03-26T18:58:00.640Z,39.80
2019-03-26T19:00:38.547Z,40.70
2019-03-26T19:03:07.445Z,41.00
2019-03-26T19:05:36.314Z,40.60
2019-03-26T19:08:05.100Z,40.70
2019-03-26T19:10:34.197Z,40.60
2019-03-26T19:13:03.322Z,40.60
2019-03-26T19:15:31.881Z,40.80
2019-03-26T19:18:00.463Z,40.80
2019-03-26T19:20:28.914Z,40.80
2019-03-26T19:22:59.037Z,41.10
2019-03-26T19:25:27.911Z,41.00
2019-03-26T19:27:56.358Z,41.10
2019-03-26T19:30:24.822Z,41.30
2019-03-26T19:32:53.631Z,41.30
2019-03-26T19:35:22.051Z,41.40
2019-03-26T19:37:51.386Z,41.70
2019-03-26T19:40:19.807Z,42.30
2019-03-26T19:42:48.235Z,42.10
2019-03-26T19:45:17.818Z,42.10
2019-03-26T19:47:46.269Z,42.10
2019-03-26T19:50:15.590Z,42.40
2019-03-26T19:52:44.203Z,42.60
2019-03-26T19:55:13.157Z,42.30
2019-03-26T19:57:41.621Z,42.40
2019-03-26T20:00:11.745Z,42.30
2019-03-26T20:02:40.171Z,43.10
2019-03-26T20:05:09.518Z,43.50
2019-03-26T20:07:38.771Z,43.20
2019-03-26T20:10:09.233Z,43.40
2019-03-26T20:12:37.727Z,43.60
2019-03-26T20:15:06.851Z,43.40
2019-03-26T20:17:35.314Z,43.50
2019-03-26T20:20:04.526Z,43.50
2019-03-26T20:22:37.046Z,43.90
2019-03-26T20:25:09.046Z,43.70
2019-03-26T20:27:37.510Z,43.70
2019-03-26T20:30:07.121Z,43.80
2019-03-26T20:32:35.679Z,43.90
2019-03-26T20:35:05.074Z,44.60
2019-03-26T20:37:33.532Z,43.70
2019-03-26T20:40:02.311Z,43.80
2019-03-26T20:42:34.379Z,43.70
2019-03-26T20:45:15.711Z,43.80
2019-03-26T20:47:44.154Z,43.80
2019-03-26T20:50:17.938Z,43.70
2019-03-26T20:52:51.151Z,43.80
2019-03-26T20:55:37.975Z,43.80
2019-03-26T20:58:06.934Z,43.80
2019-03-26T21:00:41.772Z,44.00
2019-03-26T21:03:10.746Z,44.10
2019-03-26T21:05:42.004Z,44.20
2019-03-26T21:08:12.710Z,44.20
2019-03-26T21:10:43.991Z,44.30
2019-03-26T21:13:14.363Z,44.40
2019-03-26T21:15:57.508Z,44.40
2019-03-26T21:18:23.787Z,44.80
2019-03-26T21:20:56.355Z,44.80
2019-03-26T21:23:32.411Z,44.90
2019-03-26T21:26:01.535Z,45.00
2019-03-26T21:28:36.362Z,45.40
2019-03-26T21:31:06.326Z,45.30
2019-03-26T21:33:35.023Z,45.60
2019-03-26T21:36:05.518Z,45.60
2019-03-26T21:38:35.554Z,45.90
2019-03-26T21:41:04.033Z,46.30
2019-03-26T21:43:32.843Z,46.20
2019-03-26T21:46:02.695Z,46.40
2019-03-26T21:48:35.546Z,46.50
2019-03-26T21:51:07.758Z,46.30
2019-03-26T21:53:38.179Z,46.40
2019-03-26T21:56:09.182Z,46.40
2019-03-26T21:58:38.028Z,46.20
2019-03-26T22:01:09.769Z,46.20
2019-03-26T22:03:42.178Z,46.30
2019-03-26T22:06:10.656Z,46.50
2019-03-26T22:08:43.611Z,47.30
2019-03-26T22:11:12.966Z,46.70
2019-03-26T22:13:42.410Z,46.60
2019-03-26T22:16:16.999Z,46.60
2019-03-26T22:18:47.108Z,46.60
2019-03-26T22:21:15.631Z,47.10
2019-03-26T22:23:45.035Z,47.20
2019-03-26T22:26:13.818Z,47.30
2019-03-26T22:28:42.515Z,47.50
2019-03-26T22:31:12.276Z,47.50
2019-03-26T22:33:42.394Z,47.70
2019-03-26T22:36:11.267Z,47.70
2019-03-26T22:38:40.691Z,47.70
2019-03-26T22:41:14.996Z,47.50
2019-03-26T22:43:46.142Z,47.80
2019-03-26T22:46:18.703Z,47.40
2019-03-26T22:48:47.142Z,47.50
2019-03-26T22:51:15.566Z,47.70
2019-03-26T22:53:44.031Z,47.60
2019-03-26T22:56:12.451Z,47.90
2019-03-26T22:58:40.919Z,47.90
2019-03-26T23:01:09.883Z,48.00
2019-03-26T23:03:38.355Z,47.90
2019-03-26T23:06:06.761Z,48.00
2019-03-26T23:08:35.223Z,48.10
2019-03-26T23:11:03.661Z,47.90
2019-03-26T23:13:32.206Z,47.70
2019-03-26T23:16:00.705Z,47.70
2019-03-26T23:18:29.159Z,47.60
2019-03-26T23:20:57.575Z,47.70
2019-03-26T23:23:26.026Z,47.90
2019-03-26T23:25:54.433Z,47.70
2019-03-26T23:28:23.295Z,48.00
2019-03-26T23:30:52.091Z,47.90
2019-03-26T23:33:20.565Z,48.20
2019-03-26T23:35:48.994Z,48.20
2019-03-26T23:38:17.451Z,48.50
2019-03-26T23:40:45.869Z,48.50
2019-03-26T23:43:14.390Z,48.50
2019-03-26T23:45:42.804Z,48.60
2019-03-26T23:48:11.271Z,48.70
2019-03-26T23:50:39.819Z,48.90
2019-03-26T23:53:08.344Z,49.00
2019-03-26T23:55:36.910Z,48.90
2019-03-26T23:58:05.739Z,48.90
